sensor_id;sensor_type;location;lat;lon;timestamp;P1;durP1;ratioP1;P2;durP2;ratioP2
61250;SDS011;47126;47.508;8.590;2023-08-06T00:00:39;9.55;;;3.20;;
61250;SDS011;47126;47.508;8.590;2023-08-06T00:03:05;5.75;;;2.55;;
61250;SDS011;47126;47.508;8.590;2023-08-06T00:05:31;4.50;;;2.38;;
61250;SDS011;47126;47.508;8.590;2023-08-06T00:07:57;5.15;;;3.05;;
61250;SDS011;47126;47.508;8.590;2023-08-06T00:10:23;6.88;;;2.80;;
61250;SDS011;47126;47.508;8.590;2023-08-06T00:12:49;5.95;;;3.00;;
61250;SDS011;47126;47.508;8.590;2023-08-06T00:15:15;5.38;;;3.35;;
61250;SDS011;47126;47.508;8.590;2023-08-06T00:17:41;5.63;;;2.72;;
61250;SDS011;47126;47.508;8.590;2023-08-06T00:20:07;5.20;;;3.03;;
61250;SDS011;47126;47.508;8.590;2023-08-06T00:22:36;6.15;;;3.55;;
61250;SDS011;47126;47.508;8.590;2023-08-06T00:25:12;7.10;;;3.60;;
61250;SDS011;47126;47.508;8.590;2023-08-06T00:27:43;4.18;;;2.97;;
61250;SDS011;47126;47.508;8.590;2023-08-06T00:30:09;4.35;;;2.72;;
61250;SDS011;47126;47.508;8.590;2023-08-06T00:32:35;5.05;;;2.85;;
61250;SDS011;47126;47.508;8.590;2023-08-06T00:35:03;7.63;;;3.45;;
61250;SDS011;47126;47.508;8.590;2023-08-06T00:37:29;4.32;;;2.63;;
61250;SDS011;47126;47.508;8.590;2023-08-06T00:39:55;4.60;;;2.58;;
61250;SDS011;47126;47.508;8.590;2023-08-06T00:42:21;5.45;;;3.22;;
61250;SDS011;47126;47.508;8.590;2023-08-06T00:44:47;4.57;;;3.03;;
61250;SDS011;47126;47.508;8.590;2023-08-06T00:47:14;4.85;;;3.00;;
61250;SDS011;47126;47.508;8.590;2023-08-06T00:49:40;7.28;;;3.38;;
61250;SDS011;47126;47.508;8.590;2023-08-06T00:52:06;6.15;;;3.55;;
61250;SDS011;47126;47.508;8.590;2023-08-06T00:54:33;5.43;;;3.35;;
61250;SDS011;47126;47.508;8.590;2023-08-06T00:57:00;5.80;;;3.55;;
61250;SDS011;47126;47.508;8.590;2023-08-06T00:59:26;5.13;;;3.00;;
61250;SDS011;47126;47.508;8.590;2023-08-06T01:01:53;15.95;;;4.13;;
61250;SDS011;47126;47.508;8.590;2023-08-06T01:04:19;6.18;;;3.55;;
61250;SDS011;47126;47.508;8.590;2023-08-06T01:06:47;5.75;;;3.10;;
61250;SDS011;47126;47.508;8.590;2023-08-06T01:09:23;5.15;;;3.28;;
61250;SDS011;47126;47.508;8.590;2023-08-06T01:11:58;5.82;;;3.50;;
61250;SDS011;47126;47.508;8.590;2023-08-06T01:16:51;7.68;;;4.32;;
61250;SDS011;47126;47.508;8.590;2023-08-06T01:19:18;7.07;;;4.10;;
61250;SDS011;47126;47.508;8.590;2023-08-06T01:21:44;14.00;;;5.18;;
61250;SDS011;47126;47.508;8.590;2023-08-06T01:24:10;9.18;;;5.15;;
61250;SDS011;47126;47.508;8.590;2023-08-06T01:26:44;8.82;;;5.15;;
61250;SDS011;47126;47.508;8.590;2023-08-06T01:29:17;9.55;;;4.85;;
61250;SDS011;47126;47.508;8.590;2023-08-06T01:31:44;10.70;;;4.78;;
61250;SDS011;47126;47.508;8.590;2023-08-06T01:34:20;8.98;;;5.03;;
61250;SDS011;47126;47.508;8.590;2023-08-06T01:36:49;7.50;;;4.65;;
61250;SDS011;47126;47.508;8.590;2023-08-06T01:39:15;8.05;;;5.15;;
61250;SDS011;47126;47.508;8.590;2023-08-06T01:41:41;7.35;;;4.30;;
61250;SDS011;47126;47.508;8.590;2023-08-06T01:44:07;7.05;;;4.47;;
61250;SDS011;47126;47.508;8.590;2023-08-06T01:46:36;8.57;;;4.55;;
61250;SDS011;47126;47.508;8.590;2023-08-06T01:49:02;6.78;;;4.03;;
61250;SDS011;47126;47.508;8.590;2023-08-06T01:51:27;8.65;;;4.03;;
61250;SDS011;47126;47.508;8.590;2023-08-06T01:53:53;8.25;;;3.88;;
61250;SDS011;47126;47.508;8.590;2023-08-06T01:56:19;6.28;;;4.00;;
61250;SDS011;47126;47.508;8.590;2023-08-06T01:58:45;7.18;;;3.90;;
61250;SDS011;47126;47.508;8.590;2023-08-06T02:01:11;6.57;;;3.60;;
61250;SDS011;47126;47.508;8.590;2023-08-06T02:03:37;7.55;;;4.20;;
61250;SDS011;47126;47.508;8.590;2023-08-06T02:06:03;7.53;;;4.10;;
61250;SDS011;47126;47.508;8.590;2023-08-06T02:08:29;6.57;;;3.45;;
61250;SDS011;47126;47.508;8.590;2023-08-06T02:10:55;9.35;;;2.97;;
61250;SDS011;47126;47.508;8.590;2023-08-06T02:13:22;5.18;;;2.83;;
61250;SDS011;47126;47.508;8.590;2023-08-06T02:15:48;4.90;;;2.50;;
61250;SDS011;47126;47.508;8.590;2023-08-06T02:18:15;6.97;;;2.30;;
61250;SDS011;47126;47.508;8.590;2023-08-06T02:20:41;4.13;;;1.95;;
61250;SDS011;47126;47.508;8.590;2023-08-06T02:23:07;4.50;;;2.10;;
61250;SDS011;47126;47.508;8.590;2023-08-06T02:25:33;6.25;;;2.50;;
61250;SDS011;47126;47.508;8.590;2023-08-06T02:27:59;4.25;;;2.10;;
61250;SDS011;47126;47.508;8.590;2023-08-06T02:30:25;4.43;;;1.85;;
61250;SDS011;47126;47.508;8.590;2023-08-06T02:32:54;4.25;;;2.08;;
61250;SDS011;47126;47.508;8.590;2023-08-06T02:35:19;5.32;;;1.92;;
61250;SDS011;47126;47.508;8.590;2023-08-06T02:37:46;2.28;;;1.50;;
61250;SDS011;47126;47.508;8.590;2023-08-06T02:40:11;4.35;;;1.67;;
61250;SDS011;47126;47.508;8.590;2023-08-06T02:42:37;3.72;;;1.77;;
61250;SDS011;47126;47.508;8.590;2023-08-06T02:45:03;3.13;;;1.50;;
61250;SDS011;47126;47.508;8.590;2023-08-06T02:47:30;7.90;;;1.58;;
61250;SDS011;47126;47.508;8.590;2023-08-06T02:49:57;4.70;;;1.48;;
61250;SDS011;47126;47.508;8.590;2023-08-06T02:52:22;5.95;;;1.33;;
61250;SDS011;47126;47.508;8.590;2023-08-06T02:54:48;5.05;;;1.30;;
61250;SDS011;47126;47.508;8.590;2023-08-06T02:57:14;3.60;;;1.35;;
61250;SDS011;47126;47.508;8.590;2023-08-06T02:59:40;4.22;;;1.52;;
61250;SDS011;47126;47.508;8.590;2023-08-06T03:02:09;1.90;;;1.10;;
61250;SDS011;47126;47.508;8.590;2023-08-06T03:04:35;2.40;;;1.52;;
61250;SDS011;47126;47.508;8.590;2023-08-06T03:07:01;2.60;;;1.27;;
61250;SDS011;47126;47.508;8.590;2023-08-06T03:09:27;2.88;;;1.40;;
61250;SDS011;47126;47.508;8.590;2023-08-06T03:11:53;1.15;;;0.88;;
61250;SDS011;47126;47.508;8.590;2023-08-06T03:14:19;3.90;;;1.40;;
61250;SDS011;47126;47.508;8.590;2023-08-06T03:16:44;2.28;;;1.10;;
61250;SDS011;47126;47.508;8.590;2023-08-06T03:19:10;2.05;;;1.35;;
61250;SDS011;47126;47.508;8.590;2023-08-06T03:21:36;2.45;;;1.20;;
61250;SDS011;47126;47.508;8.590;2023-08-06T03:24:02;3.17;;;1.30;;
61250;SDS011;47126;47.508;8.590;2023-08-06T03:26:28;2.30;;;1.30;;
61250;SDS011;47126;47.508;8.590;2023-08-06T03:28:54;2.90;;;1.23;;
61250;SDS011;47126;47.508;8.590;2023-08-06T03:31:20;2.10;;;1.10;;
61250;SDS011;47126;47.508;8.590;2023-08-06T03:33:46;7.32;;;1.30;;
61250;SDS011;47126;47.508;8.590;2023-08-06T03:36:12;5.30;;;1.40;;
61250;SDS011;47126;47.508;8.590;2023-08-06T03:38:38;2.53;;;0.88;;
61250;SDS011;47126;47.508;8.590;2023-08-06T03:41:04;3.15;;;1.40;;
61250;SDS011;47126;47.508;8.590;2023-08-06T03:43:30;1.63;;;1.08;;
61250;SDS011;47126;47.508;8.590;2023-08-06T03:45:56;3.30;;;1.13;;
61250;SDS011;47126;47.508;8.590;2023-08-06T03:48:22;2.75;;;1.23;;
61250;SDS011;47126;47.508;8.590;2023-08-06T03:50:48;1.52;;;1.00;;
61250;SDS011;47126;47.508;8.590;2023-08-06T03:53:14;1.88;;;1.10;;
61250;SDS011;47126;47.508;8.590;2023-08-06T03:55:42;1.70;;;1.20;;
61250;SDS011;47126;47.508;8.590;2023-08-06T03:58:08;2.45;;;1.10;;
61250;SDS011;47126;47.508;8.590;2023-08-06T04:00:36;3.03;;;1.27;;
61250;SDS011;47126;47.508;8.590;2023-08-06T04:03:02;3.30;;;1.23;;
61250;SDS011;47126;47.508;8.590;2023-08-06T04:05:30;2.25;;;1.35;;
61250;SDS011;47126;47.508;8.590;2023-08-06T04:07:57;5.05;;;1.20;;
61250;SDS011;47126;47.508;8.590;2023-08-06T04:10:23;3.08;;;1.23;;
61250;SDS011;47126;47.508;8.590;2023-08-06T04:12:49;3.42;;;1.48;;
61250;SDS011;47126;47.508;8.590;2023-08-06T04:15:15;6.65;;;1.67;;
61250;SDS011;47126;47.508;8.590;2023-08-06T04:17:41;5.57;;;2.08;;
61250;SDS011;47126;47.508;8.590;2023-08-06T04:20:07;3.75;;;1.30;;
61250;SDS011;47126;47.508;8.590;2023-08-06T04:22:33;6.47;;;1.48;;
61250;SDS011;47126;47.508;8.590;2023-08-06T04:24:59;7.07;;;1.17;;
61250;SDS011;47126;47.508;8.590;2023-08-06T04:27:25;4.90;;;1.00;;
61250;SDS011;47126;47.508;8.590;2023-08-06T04:29:51;4.47;;;0.65;;
61250;SDS011;47126;47.508;8.590;2023-08-06T04:32:17;3.28;;;0.80;;
61250;SDS011;47126;47.508;8.590;2023-08-06T04:34:44;1.92;;;0.50;;
61250;SDS011;47126;47.508;8.590;2023-08-06T04:39:45;6.43;;;0.70;;
61250;SDS011;47126;47.508;8.590;2023-08-06T04:42:13;8.30;;;0.85;;
61250;SDS011;47126;47.508;8.590;2023-08-06T04:44:39;5.75;;;0.90;;
61250;SDS011;47126;47.508;8.590;2023-08-06T04:47:05;6.65;;;1.75;;
61250;SDS011;47126;47.508;8.590;2023-08-06T04:49:31;1.33;;;0.68;;
61250;SDS011;47126;47.508;8.590;2023-08-06T04:51:57;0.85;;;0.50;;
61250;SDS011;47126;47.508;8.590;2023-08-06T04:54:25;2.92;;;0.60;;
61250;SDS011;47126;47.508;8.590;2023-08-06T04:56:53;2.83;;;0.77;;
61250;SDS011;47126;47.508;8.590;2023-08-06T04:59:22;1.55;;;0.50;;
61250;SDS011;47126;47.508;8.590;2023-08-06T05:01:47;2.17;;;0.70;;
61250;SDS011;47126;47.508;8.590;2023-08-06T05:04:13;2.25;;;0.65;;
61250;SDS011;47126;47.508;8.590;2023-08-06T05:06:42;0.80;;;0.50;;
61250;SDS011;47126;47.508;8.590;2023-08-06T05:09:08;1.92;;;0.60;;
61250;SDS011;47126;47.508;8.590;2023-08-06T05:11:34;2.45;;;0.80;;
61250;SDS011;47126;47.508;8.590;2023-08-06T05:14:00;3.03;;;0.90;;
61250;SDS011;47126;47.508;8.590;2023-08-06T05:16:26;2.33;;;0.80;;
61250;SDS011;47126;47.508;8.590;2023-08-06T05:18:52;4.47;;;1.23;;
61250;SDS011;47126;47.508;8.590;2023-08-06T05:21:18;6.00;;;0.57;;
61250;SDS011;47126;47.508;8.590;2023-08-06T05:23:46;1.85;;;0.55;;
61250;SDS011;47126;47.508;8.590;2023-08-06T05:26:12;4.47;;;0.50;;
61250;SDS011;47126;47.508;8.590;2023-08-06T05:28:40;2.45;;;0.70;;
61250;SDS011;47126;47.508;8.590;2023-08-06T05:31:06;4.90;;;0.73;;
61250;SDS011;47126;47.508;8.590;2023-08-06T05:33:32;1.75;;;0.45;;
61250;SDS011;47126;47.508;8.590;2023-08-06T05:35:58;1.98;;;0.60;;
61250;SDS011;47126;47.508;8.590;2023-08-06T05:38:26;2.50;;;0.45;;
61250;SDS011;47126;47.508;8.590;2023-08-06T05:40:55;3.08;;;0.75;;
61250;SDS011;47126;47.508;8.590;2023-08-06T05:43:21;1.90;;;0.80;;
61250;SDS011;47126;47.508;8.590;2023-08-06T05:45:49;1.35;;;0.50;;
61250;SDS011;47126;47.508;8.590;2023-08-06T05:48:15;3.20;;;0.82;;
61250;SDS011;47126;47.508;8.590;2023-08-06T05:50:41;3.72;;;0.60;;
61250;SDS011;47126;47.508;8.590;2023-08-06T05:53:07;0.98;;;0.63;;
61250;SDS011;47126;47.508;8.590;2023-08-06T05:55:35;3.33;;;0.93;;
61250;SDS011;47126;47.508;8.590;2023-08-06T05:58:03;1.10;;;0.82;;
61250;SDS011;47126;47.508;8.590;2023-08-06T06:00:29;4.20;;;1.30;;
61250;SDS011;47126;47.508;8.590;2023-08-06T06:02:55;4.55;;;0.70;;
61250;SDS011;47126;47.508;8.590;2023-08-06T06:05:21;2.30;;;1.08;;
61250;SDS011;47126;47.508;8.590;2023-08-06T06:07:47;2.72;;;1.42;;
61250;SDS011;47126;47.508;8.590;2023-08-06T06:10:15;1.05;;;0.55;;
61250;SDS011;47126;47.508;8.590;2023-08-06T06:12:41;5.22;;;0.85;;
61250;SDS011;47126;47.508;8.590;2023-08-06T06:15:10;3.70;;;0.80;;
61250;SDS011;47126;47.508;8.590;2023-08-06T06:17:38;3.67;;;0.70;;
61250;SDS011;47126;47.508;8.590;2023-08-06T06:20:04;3.97;;;0.80;;
61250;SDS011;47126;47.508;8.590;2023-08-06T06:22:31;2.47;;;0.60;;
61250;SDS011;47126;47.508;8.590;2023-08-06T06:24:56;3.05;;;0.60;;
61250;SDS011;47126;47.508;8.590;2023-08-06T06:27:24;1.95;;;0.60;;
61250;SDS011;47126;47.508;8.590;2023-08-06T06:29:52;0.45;;;0.40;;
61250;SDS011;47126;47.508;8.590;2023-08-06T06:32:19;2.10;;;0.60;;
61250;SDS011;47126;47.508;8.590;2023-08-06T06:34:45;2.53;;;0.50;;
61250;SDS011;47126;47.508;8.590;2023-08-06T06:37:11;2.30;;;0.50;;
61250;SDS011;47126;47.508;8.590;2023-08-06T06:39:40;2.83;;;0.40;;
61250;SDS011;47126;47.508;8.590;2023-08-06T06:42:06;2.28;;;0.60;;
61250;SDS011;47126;47.508;8.590;2023-08-06T06:44:32;3.55;;;0.63;;
61250;SDS011;47126;47.508;8.590;2023-08-06T06:47:00;1.85;;;0.40;;
61250;SDS011;47126;47.508;8.590;2023-08-06T06:49:26;1.85;;;0.50;;
61250;SDS011;47126;47.508;8.590;2023-08-06T06:51:52;4.70;;;3.58;;
61250;SDS011;47126;47.508;8.590;2023-08-06T06:54:20;2.65;;;0.70;;
61250;SDS011;47126;47.508;8.590;2023-08-06T06:56:46;2.65;;;0.80;;
61250;SDS011;47126;47.508;8.590;2023-08-06T06:59:12;2.15;;;1.00;;
61250;SDS011;47126;47.508;8.590;2023-08-06T07:01:38;2.10;;;0.60;;
61250;SDS011;47126;47.508;8.590;2023-08-06T07:04:04;1.92;;;0.60;;
61250;SDS011;47126;47.508;8.590;2023-08-06T07:06:32;2.65;;;0.80;;
61250;SDS011;47126;47.508;8.590;2023-08-06T07:08:58;3.03;;;0.80;;
61250;SDS011;47126;47.508;8.590;2023-08-06T07:11:24;1.48;;;0.52;;
61250;SDS011;47126;47.508;8.590;2023-08-06T07:13:55;0.93;;;0.57;;
61250;SDS011;47126;47.508;8.590;2023-08-06T07:16:24;1.02;;;0.50;;
61250;SDS011;47126;47.508;8.590;2023-08-06T07:18:53;1.85;;;0.50;;
61250;SDS011;47126;47.508;8.590;2023-08-06T07:21:21;1.33;;;0.55;;
61250;SDS011;47126;47.508;8.590;2023-08-06T07:23:47;1.05;;;0.50;;
61250;SDS011;47126;47.508;8.590;2023-08-06T07:26:16;2.05;;;0.60;;
61250;SDS011;47126;47.508;8.590;2023-08-06T07:28:42;0.75;;;0.60;;
61250;SDS011;47126;47.508;8.590;2023-08-06T07:31:09;1.38;;;0.63;;
61250;SDS011;47126;47.508;8.590;2023-08-06T07:33:35;5.07;;;0.77;;
61250;SDS011;47126;47.508;8.590;2023-08-06T07:36:07;2.10;;;0.55;;
61250;SDS011;47126;47.508;8.590;2023-08-06T07:38:33;1.40;;;0.50;;
61250;SDS011;47126;47.508;8.590;2023-08-06T07:41:07;1.08;;;0.50;;
61250;SDS011;47126;47.508;8.590;2023-08-06T07:43:35;2.90;;;0.57;;
61250;SDS011;47126;47.508;8.590;2023-08-06T07:46:01;3.67;;;0.60;;
61250;SDS011;47126;47.508;8.590;2023-08-06T07:48:27;2.25;;;0.50;;
61250;SDS011;47126;47.508;8.590;2023-08-06T07:50:55;1.85;;;0.40;;
61250;SDS011;47126;47.508;8.590;2023-08-06T07:53:24;2.08;;;0.57;;
61250;SDS011;47126;47.508;8.590;2023-08-06T07:55:57;1.88;;;0.50;;
61250;SDS011;47126;47.508;8.590;2023-08-06T07:58:24;2.35;;;0.50;;
61250;SDS011;47126;47.508;8.590;2023-08-06T08:00:50;1.00;;;0.40;;
61250;SDS011;47126;47.508;8.590;2023-08-06T08:03:16;1.35;;;0.60;;
61250;SDS011;47126;47.508;8.590;2023-08-06T08:05:42;1.02;;;0.47;;
61250;SDS011;47126;47.508;8.590;2023-08-06T08:08:11;1.52;;;1.10;;
61250;SDS011;47126;47.508;8.590;2023-08-06T08:10:37;0.95;;;0.63;;
61250;SDS011;47126;47.508;8.590;2023-08-06T08:13:03;1.20;;;0.30;;
61250;SDS011;47126;47.508;8.590;2023-08-06T08:15:30;2.58;;;0.50;;
61250;SDS011;47126;47.508;8.590;2023-08-06T08:17:56;3.42;;;0.55;;
61250;SDS011;47126;47.508;8.590;2023-08-06T08:20:22;1.55;;;0.50;;
61250;SDS011;47126;47.508;8.590;2023-08-06T08:22:56;1.75;;;0.60;;
61250;SDS011;47126;47.508;8.590;2023-08-06T08:25:22;1.17;;;0.40;;
61250;SDS011;47126;47.508;8.590;2023-08-06T08:27:48;3.70;;;0.82;;
61250;SDS011;47126;47.508;8.590;2023-08-06T08:30:16;1.65;;;0.70;;
61250;SDS011;47126;47.508;8.590;2023-08-06T08:32:42;2.08;;;0.60;;
61250;SDS011;47126;47.508;8.590;2023-08-06T08:35:10;0.93;;;0.50;;
61250;SDS011;47126;47.508;8.590;2023-08-06T08:37:38;0.95;;;0.40;;
61250;SDS011;47126;47.508;8.590;2023-08-06T08:40:05;2.17;;;0.60;;
61250;SDS011;47126;47.508;8.590;2023-08-06T08:42:33;2.25;;;0.40;;
61250;SDS011;47126;47.508;8.590;2023-08-06T08:45:02;1.02;;;0.50;;
61250;SDS011;47126;47.508;8.590;2023-08-06T08:47:29;0.40;;;0.40;;
61250;SDS011;47126;47.508;8.590;2023-08-06T08:49:56;0.40;;;0.30;;
61250;SDS011;47126;47.508;8.590;2023-08-06T08:52:22;0.90;;;0.50;;
61250;SDS011;47126;47.508;8.590;2023-08-06T08:54:49;1.00;;;0.40;;
61250;SDS011;47126;47.508;8.590;2023-08-06T08:57:17;2.47;;;0.40;;
61250;SDS011;47126;47.508;8.590;2023-08-06T08:59:44;0.85;;;0.43;;
61250;SDS011;47126;47.508;8.590;2023-08-06T09:02:11;0.30;;;0.30;;
61250;SDS011;47126;47.508;8.590;2023-08-06T09:04:38;0.98;;;0.40;;
61250;SDS011;47126;47.508;8.590;2023-08-06T09:07:05;0.95;;;0.30;;
61250;SDS011;47126;47.508;8.590;2023-08-06T09:09:31;0.90;;;0.40;;
61250;SDS011;47126;47.508;8.590;2023-08-06T09:12:02;1.50;;;0.40;;
61250;SDS011;47126;47.508;8.590;2023-08-06T09:14:34;2.67;;;2.00;;
61250;SDS011;47126;47.508;8.590;2023-08-06T09:17:03;0.85;;;0.30;;
61250;SDS011;47126;47.508;8.590;2023-08-06T09:19:30;0.40;;;0.40;;
61250;SDS011;47126;47.508;8.590;2023-08-06T09:21:57;0.55;;;0.30;;
61250;SDS011;47126;47.508;8.590;2023-08-06T09:24:23;0.75;;;0.30;;
61250;SDS011;47126;47.508;8.590;2023-08-06T09:26:49;0.60;;;0.60;;
61250;SDS011;47126;47.508;8.590;2023-08-06T09:29:15;0.95;;;0.50;;
61250;SDS011;47126;47.508;8.590;2023-08-06T09:34:10;1.05;;;0.40;;
61250;SDS011;47126;47.508;8.590;2023-08-06T09:36:39;0.63;;;0.40;;
61250;SDS011;47126;47.508;8.590;2023-08-06T09:39:12;1.30;;;0.40;;
61250;SDS011;47126;47.508;8.590;2023-08-06T09:41:40;1.27;;;0.20;;
61250;SDS011;47126;47.508;8.590;2023-08-06T09:44:17;0.57;;;0.32;;
61250;SDS011;47126;47.508;8.590;2023-08-06T09:46:51;0.45;;;0.32;;
61250;SDS011;47126;47.508;8.590;2023-08-06T09:49:20;0.28;;;0.22;;
61250;SDS011;47126;47.508;8.590;2023-08-06T09:51:47;0.65;;;0.45;;
61250;SDS011;47126;47.508;8.590;2023-08-06T09:54:16;0.38;;;0.30;;
61250;SDS011;47126;47.508;8.590;2023-08-06T09:56:46;0.32;;;0.30;;
61250;SDS011;47126;47.508;8.590;2023-08-06T09:59:14;0.55;;;0.50;;
61250;SDS011;47126;47.508;8.590;2023-08-06T10:01:41;0.30;;;0.22;;
61250;SDS011;47126;47.508;8.590;2023-08-06T10:04:07;0.28;;;0.22;;
61250;SDS011;47126;47.508;8.590;2023-08-06T10:06:33;0.32;;;0.30;;
61250;SDS011;47126;47.508;8.590;2023-08-06T10:09:14;0.57;;;0.30;;
61250;SDS011;47126;47.508;8.590;2023-08-06T10:11:40;0.43;;;0.22;;
61250;SDS011;47126;47.508;8.590;2023-08-06T10:14:12;0.30;;;0.30;;
61250;SDS011;47126;47.508;8.590;2023-08-06T10:16:38;1.90;;;0.40;;
61250;SDS011;47126;47.508;8.590;2023-08-06T10:19:07;2.83;;;2.28;;
61250;SDS011;47126;47.508;8.590;2023-08-06T10:21:40;0.70;;;0.70;;
61250;SDS011;47126;47.508;8.590;2023-08-06T10:24:14;1.40;;;0.30;;
61250;SDS011;47126;47.508;8.590;2023-08-06T10:26:40;0.80;;;0.30;;
61250;SDS011;47126;47.508;8.590;2023-08-06T10:29:39;0.93;;;0.40;;
61250;SDS011;47126;47.508;8.590;2023-08-06T10:31:58;1.90;;;0.80;;
61250;SDS011;47126;47.508;8.590;2023-08-06T10:34:25;0.50;;;0.40;;
61250;SDS011;47126;47.508;8.590;2023-08-06T10:37:11;0.88;;;0.40;;
61250;SDS011;47126;47.508;8.590;2023-08-06T10:39:37;0.60;;;0.60;;
61250;SDS011;47126;47.508;8.590;2023-08-06T10:42:20;1.65;;;0.30;;
61250;SDS011;47126;47.508;8.590;2023-08-06T10:47:33;0.47;;;0.45;;
61250;SDS011;47126;47.508;8.590;2023-08-06T10:50:06;0.30;;;0.30;;
61250;SDS011;47126;47.508;8.590;2023-08-06T10:55:01;0.75;;;0.30;;
61250;SDS011;47126;47.508;8.590;2023-08-06T10:57:27;0.95;;;0.38;;
61250;SDS011;47126;47.508;8.590;2023-08-06T10:59:57;0.45;;;0.28;;
61250;SDS011;47126;47.508;8.590;2023-08-06T11:02:23;0.32;;;0.30;;
61250;SDS011;47126;47.508;8.590;2023-08-06T11:04:49;0.60;;;0.30;;
61250;SDS011;47126;47.508;8.590;2023-08-06T11:07:17;1.85;;;0.50;;
61250;SDS011;47126;47.508;8.590;2023-08-06T11:09:43;0.82;;;0.30;;
61250;SDS011;47126;47.508;8.590;2023-08-06T11:12:17;0.38;;;0.30;;
61250;SDS011;47126;47.508;8.590;2023-08-06T11:14:49;0.25;;;0.25;;
61250;SDS011;47126;47.508;8.590;2023-08-06T11:17:15;1.13;;;0.50;;
61250;SDS011;47126;47.508;8.590;2023-08-06T11:19:43;0.63;;;0.30;;
61250;SDS011;47126;47.508;8.590;2023-08-06T11:22:09;1.05;;;0.60;;
61250;SDS011;47126;47.508;8.590;2023-08-06T11:24:35;1.02;;;0.50;;
61250;SDS011;47126;47.508;8.590;2023-08-06T11:27:10;0.30;;;0.30;;
61250;SDS011;47126;47.508;8.590;2023-08-06T11:29:39;0.30;;;0.30;;
61250;SDS011;47126;47.508;8.590;2023-08-06T11:32:08;0.47;;;0.47;;
61250;SDS011;47126;47.508;8.590;2023-08-06T11:34:34;0.50;;;0.40;;
61250;SDS011;47126;47.508;8.590;2023-08-06T11:37:00;0.82;;;0.43;;
61250;SDS011;47126;47.508;8.590;2023-08-06T11:39:29;3.92;;;0.50;;
61250;SDS011;47126;47.508;8.590;2023-08-06T11:41:55;0.50;;;0.38;;
61250;SDS011;47126;47.508;8.590;2023-08-06T11:44:22;0.30;;;0.30;;
61250;SDS011;47126;47.508;8.590;2023-08-06T11:46:50;0.20;;;0.20;;
61250;SDS011;47126;47.508;8.590;2023-08-06T11:51:49;0.30;;;0.30;;
61250;SDS011;47126;47.508;8.590;2023-08-06T11:54:29;3.45;;;0.50;;
61250;SDS011;47126;47.508;8.590;2023-08-06T11:56:59;2.50;;;0.30;;
61250;SDS011;47126;47.508;8.590;2023-08-06T11:59:27;1.00;;;0.32;;
61250;SDS011;47126;47.508;8.590;2023-08-06T12:01:53;0.40;;;0.30;;
61250;SDS011;47126;47.508;8.590;2023-08-06T12:04:19;0.40;;;0.35;;
61250;SDS011;47126;47.508;8.590;2023-08-06T12:06:47;0.88;;;0.40;;
61250;SDS011;47126;47.508;8.590;2023-08-06T12:09:15;0.30;;;0.30;;
61250;SDS011;47126;47.508;8.590;2023-08-06T12:11:41;1.33;;;0.52;;
61250;SDS011;47126;47.508;8.590;2023-08-06T12:14:10;0.50;;;0.28;;
61250;SDS011;47126;47.508;8.590;2023-08-06T12:16:35;1.00;;;0.30;;
61250;SDS011;47126;47.508;8.590;2023-08-06T12:19:01;0.40;;;0.30;;
61250;SDS011;47126;47.508;8.590;2023-08-06T12:21:29;1.23;;;0.40;;
61250;SDS011;47126;47.508;8.590;2023-08-06T12:23:55;2.65;;;0.30;;
61250;SDS011;47126;47.508;8.590;2023-08-06T12:26:23;0.30;;;0.30;;
61250;SDS011;47126;47.508;8.590;2023-08-06T12:28:49;0.80;;;0.35;;
61250;SDS011;47126;47.508;8.590;2023-08-06T12:31:21;0.20;;;0.20;;
61250;SDS011;47126;47.508;8.590;2023-08-06T12:33:50;1.48;;;0.30;;
61250;SDS011;47126;47.508;8.590;2023-08-06T12:36:18;0.30;;;0.30;;
61250;SDS011;47126;47.508;8.590;2023-08-06T12:38:44;1.08;;;0.20;;
61250;SDS011;47126;47.508;8.590;2023-08-06T12:41:10;0.35;;;0.20;;
61250;SDS011;47126;47.508;8.590;2023-08-06T12:43:38;0.20;;;0.20;;
61250;SDS011;47126;47.508;8.590;2023-08-06T12:46:06;0.20;;;0.20;;
61250;SDS011;47126;47.508;8.590;2023-08-06T12:48:32;1.75;;;0.43;;
61250;SDS011;47126;47.508;8.590;2023-08-06T12:50:58;1.00;;;0.20;;
61250;SDS011;47126;47.508;8.590;2023-08-06T12:53:24;0.57;;;0.38;;
61250;SDS011;47126;47.508;8.590;2023-08-06T12:55:52;0.65;;;0.60;;
61250;SDS011;47126;47.508;8.590;2023-08-06T12:58:18;0.55;;;0.52;;
61250;SDS011;47126;47.508;8.590;2023-08-06T13:00:44;0.38;;;0.30;;
61250;SDS011;47126;47.508;8.590;2023-08-06T13:03:13;0.45;;;0.30;;
61250;SDS011;47126;47.508;8.590;2023-08-06T13:05:39;0.30;;;0.30;;
61250;SDS011;47126;47.508;8.590;2023-08-06T13:08:05;2.65;;;0.70;;
61250;SDS011;47126;47.508;8.590;2023-08-06T13:10:31;1.85;;;0.50;;
61250;SDS011;47126;47.508;8.590;2023-08-06T13:12:57;0.47;;;0.40;;
61250;SDS011;47126;47.508;8.590;2023-08-06T13:15:23;0.60;;;0.60;;
61250;SDS011;47126;47.508;8.590;2023-08-06T13:17:53;0.45;;;0.30;;
61250;SDS011;47126;47.508;8.590;2023-08-06T13:20:19;0.88;;;0.50;;
61250;SDS011;47126;47.508;8.590;2023-08-06T13:22:45;0.43;;;0.28;;
61250;SDS011;47126;47.508;8.590;2023-08-06T13:25:15;0.57;;;0.50;;
61250;SDS011;47126;47.508;8.590;2023-08-06T13:27:41;2.05;;;0.57;;
61250;SDS011;47126;47.508;8.590;2023-08-06T13:30:09;1.40;;;0.60;;
61250;SDS011;47126;47.508;8.590;2023-08-06T13:32:35;0.80;;;0.50;;
61250;SDS011;47126;47.508;8.590;2023-08-06T13:35:04;0.90;;;0.82;;
61250;SDS011;47126;47.508;8.590;2023-08-06T13:37:30;1.05;;;0.65;;
61250;SDS011;47126;47.508;8.590;2023-08-06T13:39:56;1.48;;;0.70;;
61250;SDS011;47126;47.508;8.590;2023-08-06T13:42:26;0.82;;;0.60;;
61250;SDS011;47126;47.508;8.590;2023-08-06T13:44:53;0.70;;;0.60;;
61250;SDS011;47126;47.508;8.590;2023-08-06T13:47:27;2.25;;;0.60;;
61250;SDS011;47126;47.508;8.590;2023-08-06T13:49:53;0.93;;;0.65;;
61250;SDS011;47126;47.508;8.590;2023-08-06T13:52:20;1.05;;;0.70;;
61250;SDS011;47126;47.508;8.590;2023-08-06T13:54:46;0.93;;;0.50;;
61250;SDS011;47126;47.508;8.590;2023-08-06T13:57:12;1.85;;;0.93;;
61250;SDS011;47126;47.508;8.590;2023-08-06T13:59:38;1.52;;;0.80;;
61250;SDS011;47126;47.508;8.590;2023-08-06T14:02:04;1.50;;;0.80;;
61250;SDS011;47126;47.508;8.590;2023-08-06T14:04:30;0.80;;;0.63;;
61250;SDS011;47126;47.508;8.590;2023-08-06T14:06:56;1.65;;;0.80;;
61250;SDS011;47126;47.508;8.590;2023-08-06T14:09:22;2.10;;;0.70;;
61250;SDS011;47126;47.508;8.590;2023-08-06T14:11:48;1.13;;;0.70;;
61250;SDS011;47126;47.508;8.590;2023-08-06T14:14:14;1.20;;;0.80;;
61250;SDS011;47126;47.508;8.590;2023-08-06T14:16:40;1.55;;;0.80;;
61250;SDS011;47126;47.508;8.590;2023-08-06T14:19:06;2.25;;;0.73;;
61250;SDS011;47126;47.508;8.590;2023-08-06T14:21:32;1.00;;;0.63;;
61250;SDS011;47126;47.508;8.590;2023-08-06T14:23:58;1.75;;;0.80;;
61250;SDS011;47126;47.508;8.590;2023-08-06T14:26:26;1.40;;;0.80;;
61250;SDS011;47126;47.508;8.590;2023-08-06T14:28:54;0.95;;;0.73;;
61250;SDS011;47126;47.508;8.590;2023-08-06T14:31:20;1.65;;;0.88;;
61250;SDS011;47126;47.508;8.590;2023-08-06T14:33:46;1.95;;;0.80;;
61250;SDS011;47126;47.508;8.590;2023-08-06T14:36:12;1.95;;;0.80;;
61250;SDS011;47126;47.508;8.590;2023-08-06T14:38:38;1.58;;;0.90;;
61250;SDS011;47126;47.508;8.590;2023-08-06T14:41:04;2.58;;;0.90;;
61250;SDS011;47126;47.508;8.590;2023-08-06T14:43:31;1.58;;;0.80;;
61250;SDS011;47126;47.508;8.590;2023-08-06T14:46:00;1.35;;;0.80;;
61250;SDS011;47126;47.508;8.590;2023-08-06T14:48:25;0.98;;;0.65;;
61250;SDS011;47126;47.508;8.590;2023-08-06T14:50:51;1.27;;;0.93;;
61250;SDS011;47126;47.508;8.590;2023-08-06T14:53:20;1.15;;;0.80;;
61250;SDS011;47126;47.508;8.590;2023-08-06T14:55:46;1.30;;;0.90;;
61250;SDS011;47126;47.508;8.590;2023-08-06T14:58:12;2.97;;;1.00;;
61250;SDS011;47126;47.508;8.590;2023-08-06T15:00:38;2.90;;;1.00;;
61250;SDS011;47126;47.508;8.590;2023-08-06T15:03:06;1.75;;;0.77;;